sensor_id;sensor_type;location;lat;lon;timestamp;P1;durP1;ratioP1;P2;durP2;ratioP2
41661;SDS011;27351;45.992;12.666;2022-08-21T00:01:24;2.60;;;1.27;;
41661;SDS011;27351;45.992;12.666;2022-08-21T00:03:50;2.40;;;1.40;;
41661;SDS011;27351;45.992;12.666;2022-08-21T00:06:16;2.97;;;1.30;;
41661;SDS011;27351;45.992;12.666;2022-08-21T00:08:42;3.03;;;1.27;;
41661;SDS011;27351;45.992;12.666;2022-08-21T00:11:09;3.63;;;1.20;;
41661;SDS011;27351;45.992;12.666;2022-08-21T00:13:43;2.05;;;1.30;;
41661;SDS011;27351;45.992;12.666;2022-08-21T00:16:12;2.75;;;1.40;;
41661;SDS011;27351;45.992;12.666;2022-08-21T00:18:37;5.37;;;1.70;;
41661;SDS011;27351;45.992;12.666;2022-08-21T00:21:03;6.17;;;1.23;;
41661;SDS011;27351;45.992;12.666;2022-08-21T00:23:29;3.27;;;1.40;;
41661;SDS011;27351;45.992;12.666;2022-08-21T00:25:55;2.88;;;1.50;;
41661;SDS011;27351;45.992;12.666;2022-08-21T00:28:21;1.95;;;1.30;;
41661;SDS011;27351;45.992;12.666;2022-08-21T00:30:46;3.53;;;1.50;;
41661;SDS011;27351;45.992;12.666;2022-08-21T00:33:13;3.10;;;1.60;;
41661;SDS011;27351;45.992;12.666;2022-08-21T00:35:42;4.88;;;1.40;;
41661;SDS011;27351;45.992;12.666;2022-08-21T00:38:08;3.07;;;1.40;;
41661;SDS011;27351;45.992;12.666;2022-08-21T00:40:40;3.72;;;1.40;;
41661;SDS011;27351;45.992;12.666;2022-08-21T00:43:06;4.00;;;1.65;;
41661;SDS011;27351;45.992;12.666;2022-08-21T00:45:33;4.97;;;1.63;;
41661;SDS011;27351;45.992;12.666;2022-08-21T00:47:59;3.37;;;1.53;;
41661;SDS011;27351;45.992;12.666;2022-08-21T00:50:26;2.63;;;1.50;;
41661;SDS011;27351;45.992;12.666;2022-08-21T00:52:54;3.50;;;1.33;;
41661;SDS011;27351;45.992;12.666;2022-08-21T00:55:20;2.58;;;1.10;;
41661;SDS011;27351;45.992;12.666;2022-08-21T00:57:47;2.78;;;1.40;;
41661;SDS011;27351;45.992;12.666;2022-08-21T01:00:15;4.28;;;1.30;;
41661;SDS011;27351;45.992;12.666;2022-08-21T01:02:48;3.15;;;1.08;;
41661;SDS011;27351;45.992;12.666;2022-08-21T01:05:13;3.15;;;1.48;;
41661;SDS011;27351;45.992;12.666;2022-08-21T01:07:40;3.10;;;1.38;;
41661;SDS011;27351;45.992;12.666;2022-08-21T01:10:07;3.45;;;1.30;;
41661;SDS011;27351;45.992;12.666;2022-08-21T01:12:33;3.10;;;1.10;;
41661;SDS011;27351;45.992;12.666;2022-08-21T01:15:00;3.63;;;1.30;;
41661;SDS011;27351;45.992;12.666;2022-08-21T01:17:26;2.80;;;1.10;;
41661;SDS011;27351;45.992;12.666;2022-08-21T01:19:52;2.40;;;1.30;;
41661;SDS011;27351;45.992;12.666;2022-08-21T01:22:18;2.78;;;1.08;;
41661;SDS011;27351;45.992;12.666;2022-08-21T01:24:50;3.25;;;1.30;;
41661;SDS011;27351;45.992;12.666;2022-08-21T01:27:16;2.30;;;1.35;;
41661;SDS011;27351;45.992;12.666;2022-08-21T01:29:43;2.73;;;1.20;;
41661;SDS011;27351;45.992;12.666;2022-08-21T01:32:12;4.32;;;1.40;;
41661;SDS011;27351;45.992;12.666;2022-08-21T01:34:40;3.80;;;1.20;;
41661;SDS011;27351;45.992;12.666;2022-08-21T01:37:06;2.42;;;1.25;;
41661;SDS011;27351;45.992;12.666;2022-08-21T01:39:39;1.95;;;1.10;;
41661;SDS011;27351;45.992;12.666;2022-08-21T01:42:04;2.97;;;1.48;;
41661;SDS011;27351;45.992;12.666;2022-08-21T01:44:30;3.40;;;1.40;;
41661;SDS011;27351;45.992;12.666;2022-08-21T01:46:57;3.90;;;1.27;;
41661;SDS011;27351;45.992;12.666;2022-08-21T01:49:23;4.03;;;1.40;;
41661;SDS011;27351;45.992;12.666;2022-08-21T01:51:48;4.35;;;1.30;;
41661;SDS011;27351;45.992;12.666;2022-08-21T01:54:14;2.90;;;1.13;;
41661;SDS011;27351;45.992;12.666;2022-08-21T01:56:40;3.13;;;1.70;;
41661;SDS011;27351;45.992;12.666;2022-08-21T01:59:07;3.13;;;1.23;;
41661;SDS011;27351;45.992;12.666;2022-08-21T02:01:33;3.10;;;1.30;;
41661;SDS011;27351;45.992;12.666;2022-08-21T02:03:59;2.50;;;1.30;;
41661;SDS011;27351;45.992;12.666;2022-08-21T02:06:24;3.50;;;1.17;;
41661;SDS011;27351;45.992;12.666;2022-08-21T02:08:50;2.53;;;1.00;;
41661;SDS011;27351;45.992;12.666;2022-08-21T02:11:15;1.95;;;1.20;;
41661;SDS011;27351;45.992;12.666;2022-08-21T02:13:41;2.83;;;1.20;;
41661;SDS011;27351;45.992;12.666;2022-08-21T02:16:07;2.07;;;0.90;;
41661;SDS011;27351;45.992;12.666;2022-08-21T02:18:33;7.78;;;1.10;;
41661;SDS011;27351;45.992;12.666;2022-08-21T02:20:59;1.52;;;1.10;;
41661;SDS011;27351;45.992;12.666;2022-08-21T02:23:25;3.38;;;1.30;;
41661;SDS011;27351;45.992;12.666;2022-08-21T02:25:50;2.20;;;1.10;;
41661;SDS011;27351;45.992;12.666;2022-08-21T02:28:16;2.07;;;1.10;;
41661;SDS011;27351;45.992;12.666;2022-08-21T02:30:43;2.67;;;1.10;;
41661;SDS011;27351;45.992;12.666;2022-08-21T02:33:09;2.70;;;1.00;;
41661;SDS011;27351;45.992;12.666;2022-08-21T02:35:36;1.83;;;1.10;;
41661;SDS011;27351;45.992;12.666;2022-08-21T02:38:07;2.20;;;0.90;;
41661;SDS011;27351;45.992;12.666;2022-08-21T02:40:34;1.90;;;1.10;;
41661;SDS011;27351;45.992;12.666;2022-08-21T02:43:01;3.70;;;1.00;;
41661;SDS011;27351;45.992;12.666;2022-08-21T02:45:27;1.55;;;1.02;;
41661;SDS011;27351;45.992;12.666;2022-08-21T02:47:58;3.08;;;1.15;;
41661;SDS011;27351;45.992;12.666;2022-08-21T02:50:26;2.90;;;1.05;;
41661;SDS011;27351;45.992;12.666;2022-08-21T02:52:52;3.90;;;1.30;;
41661;SDS011;27351;45.992;12.666;2022-08-21T02:55:19;2.08;;;1.08;;
41661;SDS011;27351;45.992;12.666;2022-08-21T02:57:46;5.40;;;1.30;;
41661;SDS011;27351;45.992;12.666;2022-08-21T03:00:14;3.10;;;1.20;;
41661;SDS011;27351;45.992;12.666;2022-08-21T03:02:40;4.88;;;1.38;;
41661;SDS011;27351;45.992;12.666;2022-08-21T03:05:06;4.47;;;1.40;;
41661;SDS011;27351;45.992;12.666;2022-08-21T03:07:33;3.05;;;1.20;;
41661;SDS011;27351;45.992;12.666;2022-08-21T03:10:00;4.07;;;1.30;;
41661;SDS011;27351;45.992;12.666;2022-08-21T03:12:25;2.42;;;1.15;;
41661;SDS011;27351;45.992;12.666;2022-08-21T03:14:51;3.50;;;1.30;;
41661;SDS011;27351;45.992;12.666;2022-08-21T03:17:17;3.38;;;1.42;;
41661;SDS011;27351;45.992;12.666;2022-08-21T03:19:42;3.70;;;1.17;;
41661;SDS011;27351;45.992;12.666;2022-08-21T03:22:08;3.85;;;1.50;;
41661;SDS011;27351;45.992;12.666;2022-08-21T03:24:34;2.15;;;1.10;;
41661;SDS011;27351;45.992;12.666;2022-08-21T03:26:59;2.93;;;1.37;;
41661;SDS011;27351;45.992;12.666;2022-08-21T03:29:25;3.93;;;1.43;;
41661;SDS011;27351;45.992;12.666;2022-08-21T03:31:51;4.60;;;1.60;;
41661;SDS011;27351;45.992;12.666;2022-08-21T03:34:20;5.15;;;1.30;;
41661;SDS011;27351;45.992;12.666;2022-08-21T03:36:46;2.30;;;1.30;;
41661;SDS011;27351;45.992;12.666;2022-08-21T03:39:13;3.90;;;1.52;;
41661;SDS011;27351;45.992;12.666;2022-08-21T03:41:38;2.03;;;1.33;;
41661;SDS011;27351;45.992;12.666;2022-08-21T03:44:04;3.63;;;1.60;;
41661;SDS011;27351;45.992;12.666;2022-08-21T03:46:30;2.60;;;1.30;;
41661;SDS011;27351;45.992;12.666;2022-08-21T03:48:55;3.15;;;1.63;;
41661;SDS011;27351;45.992;12.666;2022-08-21T03:51:21;2.85;;;1.25;;
41661;SDS011;27351;45.992;12.666;2022-08-21T03:53:47;2.53;;;1.15;;
41661;SDS011;27351;45.992;12.666;2022-08-21T03:56:13;2.55;;;1.42;;
41661;SDS011;27351;45.992;12.666;2022-08-21T03:58:38;3.40;;;1.30;;
41661;SDS011;27351;45.992;12.666;2022-08-21T04:01:05;3.13;;;1.30;;
41661;SDS011;27351;45.992;12.666;2022-08-21T04:03:32;4.68;;;1.40;;
41661;SDS011;27351;45.992;12.666;2022-08-21T04:05:59;3.97;;;1.30;;
41661;SDS011;27351;45.992;12.666;2022-08-21T04:08:24;2.90;;;1.17;;
41661;SDS011;27351;45.992;12.666;2022-08-21T04:10:51;2.70;;;1.17;;
41661;SDS011;27351;45.992;12.666;2022-08-21T04:13:17;2.28;;;1.10;;
41661;SDS011;27351;45.992;12.666;2022-08-21T04:15:43;3.70;;;1.20;;
41661;SDS011;27351;45.992;12.666;2022-08-21T04:18:09;3.40;;;1.50;;
41661;SDS011;27351;45.992;12.666;2022-08-21T04:20:35;2.92;;;1.48;;
41661;SDS011;27351;45.992;12.666;2022-08-21T04:23:01;3.45;;;1.50;;
41661;SDS011;27351;45.992;12.666;2022-08-21T04:25:28;3.25;;;1.27;;
41661;SDS011;27351;45.992;12.666;2022-08-21T04:27:54;3.92;;;1.30;;
41661;SDS011;27351;45.992;12.666;2022-08-21T04:30:19;3.27;;;1.30;;
41661;SDS011;27351;45.992;12.666;2022-08-21T04:32:47;3.67;;;1.57;;
41661;SDS011;27351;45.992;12.666;2022-08-21T04:35:15;2.80;;;1.30;;
41661;SDS011;27351;45.992;12.666;2022-08-21T04:37:41;3.22;;;1.30;;
41661;SDS011;27351;45.992;12.666;2022-08-21T04:40:07;2.93;;;1.37;;
41661;SDS011;27351;45.992;12.666;2022-08-21T04:42:40;3.70;;;1.30;;
41661;SDS011;27351;45.992;12.666;2022-08-21T04:45:06;2.72;;;1.20;;
41661;SDS011;27351;45.992;12.666;2022-08-21T04:47:31;1.97;;;1.23;;
41661;SDS011;27351;45.992;12.666;2022-08-21T04:49:57;2.60;;;1.20;;
41661;SDS011;27351;45.992;12.666;2022-08-21T04:52:22;3.83;;;1.27;;
41661;SDS011;27351;45.992;12.666;2022-08-21T04:54:48;2.67;;;1.40;;
41661;SDS011;27351;45.992;12.666;2022-08-21T04:57:17;2.90;;;1.17;;
41661;SDS011;27351;45.992;12.666;2022-08-21T04:59:45;4.63;;;1.30;;
41661;SDS011;27351;45.992;12.666;2022-08-21T05:02:12;2.05;;;1.20;;
41661;SDS011;27351;45.992;12.666;2022-08-21T05:04:42;2.15;;;1.15;;
41661;SDS011;27351;45.992;12.666;2022-08-21T05:07:10;2.92;;;1.20;;
41661;SDS011;27351;45.992;12.666;2022-08-21T05:09:37;2.50;;;1.30;;
41661;SDS011;27351;45.992;12.666;2022-08-21T05:12:03;2.90;;;1.33;;
41661;SDS011;27351;45.992;12.666;2022-08-21T05:14:30;3.22;;;1.10;;
41661;SDS011;27351;45.992;12.666;2022-08-21T05:16:56;3.03;;;1.23;;
41661;SDS011;27351;45.992;12.666;2022-08-21T05:19:21;4.40;;;1.30;;
41661;SDS011;27351;45.992;12.666;2022-08-21T05:21:47;2.30;;;1.20;;
41661;SDS011;27351;45.992;12.666;2022-08-21T05:24:13;2.47;;;1.33;;
41661;SDS011;27351;45.992;12.666;2022-08-21T05:26:38;3.65;;;1.23;;
41661;SDS011;27351;45.992;12.666;2022-08-21T05:29:04;4.30;;;1.63;;
41661;SDS011;27351;45.992;12.666;2022-08-21T05:31:30;2.03;;;1.20;;
41661;SDS011;27351;45.992;12.666;2022-08-21T05:33:55;3.17;;;1.20;;
41661;SDS011;27351;45.992;12.666;2022-08-21T05:36:22;4.90;;;1.30;;
41661;SDS011;27351;45.992;12.666;2022-08-21T05:38:48;3.40;;;1.38;;
41661;SDS011;27351;45.992;12.666;2022-08-21T05:41:14;3.08;;;1.50;;
41661;SDS011;27351;45.992;12.666;2022-08-21T05:43:39;2.70;;;1.70;;
41661;SDS011;27351;45.992;12.666;2022-08-21T05:46:06;2.13;;;1.13;;
41661;SDS011;27351;45.992;12.666;2022-08-21T05:48:32;3.10;;;1.30;;
41661;SDS011;27351;45.992;12.666;2022-08-21T05:50:58;2.57;;;1.30;;
41661;SDS011;27351;45.992;12.666;2022-08-21T05:53:24;1.52;;;0.90;;
41661;SDS011;27351;45.992;12.666;2022-08-21T05:55:50;2.67;;;1.20;;
41661;SDS011;27351;45.992;12.666;2022-08-21T05:58:16;1.23;;;0.90;;
41661;SDS011;27351;45.992;12.666;2022-08-21T06:00:43;2.25;;;1.20;;
41661;SDS011;27351;45.992;12.666;2022-08-21T06:03:17;2.20;;;1.20;;
41661;SDS011;27351;45.992;12.666;2022-08-21T06:05:43;4.27;;;1.20;;
41661;SDS011;27351;45.992;12.666;2022-08-21T06:08:09;2.77;;;1.10;;
41661;SDS011;27351;45.992;12.666;2022-08-21T06:10:34;4.35;;;1.20;;
41661;SDS011;27351;45.992;12.666;2022-08-21T06:13:00;3.40;;;1.25;;
41661;SDS011;27351;45.992;12.666;2022-08-21T06:15:32;4.80;;;1.20;;
41661;SDS011;27351;45.992;12.666;2022-08-21T06:17:57;3.37;;;1.00;;
41661;SDS011;27351;45.992;12.666;2022-08-21T06:20:23;3.30;;;1.00;;
41661;SDS011;27351;45.992;12.666;2022-08-21T06:22:48;1.77;;;1.10;;
41661;SDS011;27351;45.992;12.666;2022-08-21T06:25:14;4.87;;;1.17;;
41661;SDS011;27351;45.992;12.666;2022-08-21T06:27:41;2.60;;;1.10;;
41661;SDS011;27351;45.992;12.666;2022-08-21T06:30:16;4.22;;;1.60;;
41661;SDS011;27351;45.992;12.666;2022-08-21T06:32:42;4.25;;;1.25;;
41661;SDS011;27351;45.992;12.666;2022-08-21T06:35:08;3.00;;;1.38;;
41661;SDS011;27351;45.992;12.666;2022-08-21T06:37:41;3.73;;;1.20;;
41661;SDS011;27351;45.992;12.666;2022-08-21T06:40:07;3.83;;;1.47;;
41661;SDS011;27351;45.992;12.666;2022-08-21T06:42:33;2.90;;;1.10;;
41661;SDS011;27351;45.992;12.666;2022-08-21T06:44:58;1.98;;;1.08;;
41661;SDS011;27351;45.992;12.666;2022-08-21T06:47:24;3.13;;;1.27;;
41661;SDS011;27351;45.992;12.666;2022-08-21T06:49:50;3.40;;;1.20;;
41661;SDS011;27351;45.992;12.666;2022-08-21T06:52:15;4.35;;;1.60;;
41661;SDS011;27351;45.992;12.666;2022-08-21T06:54:41;2.45;;;1.15;;
41661;SDS011;27351;45.992;12.666;2022-08-21T06:57:07;2.78;;;1.20;;
41661;SDS011;27351;45.992;12.666;2022-08-21T06:59:32;2.63;;;1.10;;
41661;SDS011;27351;45.992;12.666;2022-08-21T07:01:58;3.50;;;1.40;;
41661;SDS011;27351;45.992;12.666;2022-08-21T07:04:24;2.13;;;1.13;;
41661;SDS011;27351;45.992;12.666;2022-08-21T07:06:50;2.33;;;1.25;;
41661;SDS011;27351;45.992;12.666;2022-08-21T07:09:16;2.50;;;1.40;;
41661;SDS011;27351;45.992;12.666;2022-08-21T07:11:42;2.42;;;1.30;;
41661;SDS011;27351;45.992;12.666;2022-08-21T07:14:08;2.90;;;1.00;;
41661;SDS011;27351;45.992;12.666;2022-08-21T07:16:34;1.90;;;1.00;;
41661;SDS011;27351;45.992;12.666;2022-08-21T07:19:00;1.92;;;1.00;;
41661;SDS011;27351;45.992;12.666;2022-08-21T07:21:25;2.08;;;0.80;;
41661;SDS011;27351;45.992;12.666;2022-08-21T07:23:51;3.67;;;0.93;;
41661;SDS011;27351;45.992;12.666;2022-08-21T07:26:19;3.65;;;1.00;;
41661;SDS011;27351;45.992;12.666;2022-08-21T07:28:46;4.03;;;0.98;;
41661;SDS011;27351;45.992;12.666;2022-08-21T07:31:13;1.57;;;0.77;;
41661;SDS011;27351;45.992;12.666;2022-08-21T07:33:39;1.48;;;0.73;;
41661;SDS011;27351;45.992;12.666;2022-08-21T07:36:06;1.60;;;0.70;;
41661;SDS011;27351;45.992;12.666;2022-08-21T07:38:32;1.40;;;0.70;;
41661;SDS011;27351;45.992;12.666;2022-08-21T07:40:58;1.00;;;0.60;;
41661;SDS011;27351;45.992;12.666;2022-08-21T07:43:25;1.90;;;0.87;;
41661;SDS011;27351;45.992;12.666;2022-08-21T07:45:51;1.75;;;0.68;;
41661;SDS011;27351;45.992;12.666;2022-08-21T07:48:19;1.15;;;0.63;;
41661;SDS011;27351;45.992;12.666;2022-08-21T07:50:45;1.02;;;0.68;;
41661;SDS011;27351;45.992;12.666;2022-08-21T07:53:11;0.90;;;0.68;;
41661;SDS011;27351;45.992;12.666;2022-08-21T07:55:36;0.93;;;0.70;;
41661;SDS011;27351;45.992;12.666;2022-08-21T07:58:02;1.83;;;1.00;;
41661;SDS011;27351;45.992;12.666;2022-08-21T08:00:28;1.37;;;0.73;;
41661;SDS011;27351;45.992;12.666;2022-08-21T08:02:54;2.25;;;0.90;;
41661;SDS011;27351;45.992;12.666;2022-08-21T08:05:22;1.80;;;0.80;;
41661;SDS011;27351;45.992;12.666;2022-08-21T08:07:49;1.30;;;0.90;;
41661;SDS011;27351;45.992;12.666;2022-08-21T08:10:15;2.08;;;0.70;;
41661;SDS011;27351;45.992;12.666;2022-08-21T08:12:41;1.98;;;0.80;;
41661;SDS011;27351;45.992;12.666;2022-08-21T08:15:10;2.35;;;0.90;;
41661;SDS011;27351;45.992;12.666;2022-08-21T08:17:36;2.60;;;0.77;;
41661;SDS011;27351;45.992;12.666;2022-08-21T08:20:04;1.65;;;0.68;;
41661;SDS011;27351;45.992;12.666;2022-08-21T08:22:30;1.25;;;0.75;;
41661;SDS011;27351;45.992;12.666;2022-08-21T08:24:57;1.65;;;0.82;;
41661;SDS011;27351;45.992;12.666;2022-08-21T08:27:23;2.38;;;0.80;;
41661;SDS011;27351;45.992;12.666;2022-08-21T08:29:49;2.53;;;0.68;;
41661;SDS011;27351;45.992;12.666;2022-08-21T08:32:14;3.22;;;0.88;;
41661;SDS011;27351;45.992;12.666;2022-08-21T08:34:40;2.22;;;1.00;;
41661;SDS011;27351;45.992;12.666;2022-08-21T08:37:07;1.33;;;0.73;;
41661;SDS011;27351;45.992;12.666;2022-08-21T08:39:33;4.15;;;1.08;;
41661;SDS011;27351;45.992;12.666;2022-08-21T08:42:02;1.60;;;0.80;;
41661;SDS011;27351;45.992;12.666;2022-08-21T08:44:30;1.37;;;0.83;;
41661;SDS011;27351;45.992;12.666;2022-08-21T08:46:56;2.70;;;0.90;;
41661;SDS011;27351;45.992;12.666;2022-08-21T08:49:24;2.17;;;0.88;;
41661;SDS011;27351;45.992;12.666;2022-08-21T08:52:44;1.50;;;0.70;;
41661;SDS011;27351;45.992;12.666;2022-08-21T08:54:45;1.57;;;0.60;;
41661;SDS011;27351;45.992;12.666;2022-08-21T08:57:16;1.65;;;0.70;;
41661;SDS011;27351;45.992;12.666;2022-08-21T08:59:46;1.37;;;0.70;;
41661;SDS011;27351;45.992;12.666;2022-08-21T09:02:14;2.90;;;0.77;;
41661;SDS011;27351;45.992;12.666;2022-08-21T09:04:40;2.60;;;0.88;;
41661;SDS011;27351;45.992;12.666;2022-08-21T09:12:18;2.25;;;1.02;;
41661;SDS011;27351;45.992;12.666;2022-08-21T09:20:08;1.63;;;0.82;;
41661;SDS011;27351;45.992;12.666;2022-08-21T09:25:28;1.80;;;0.98;;
41661;SDS011;27351;45.992;12.666;2022-08-21T09:27:56;2.83;;;1.10;;
41661;SDS011;27351;45.992;12.666;2022-08-21T09:30:31;2.53;;;1.17;;
41661;SDS011;27351;45.992;12.666;2022-08-21T09:32:57;2.78;;;1.30;;
41661;SDS011;27351;45.992;12.666;2022-08-21T09:35:23;2.33;;;1.10;;
41661;SDS011;27351;45.992;12.666;2022-08-21T09:40:25;4.72;;;1.35;;
41661;SDS011;27351;45.992;12.666;2022-08-21T09:42:54;3.97;;;1.10;;
41661;SDS011;27351;45.992;12.666;2022-08-21T09:45:20;3.37;;;1.20;;
41661;SDS011;27351;45.992;12.666;2022-08-21T09:47:46;3.27;;;1.10;;
41661;SDS011;27351;45.992;12.666;2022-08-21T09:50:13;2.55;;;1.00;;
41661;SDS011;27351;45.992;12.666;2022-08-21T09:52:49;3.40;;;1.20;;
41661;SDS011;27351;45.992;12.666;2022-08-21T09:55:19;2.58;;;1.10;;
41661;SDS011;27351;45.992;12.666;2022-08-21T09:58:04;2.72;;;1.30;;
41661;SDS011;27351;45.992;12.666;2022-08-21T10:00:31;3.55;;;1.10;;
41661;SDS011;27351;45.992;12.666;2022-08-21T10:05:35;2.65;;;1.10;;
41661;SDS011;27351;45.992;12.666;2022-08-21T10:08:02;2.17;;;1.20;;
41661;SDS011;27351;45.992;12.666;2022-08-21T10:10:30;2.38;;;1.00;;
41661;SDS011;27351;45.992;12.666;2022-08-21T10:15:29;1.70;;;1.10;;
41661;SDS011;27351;45.992;12.666;2022-08-21T10:18:04;2.37;;;1.00;;
41661;SDS011;27351;45.992;12.666;2022-08-21T10:20:37;2.67;;;1.10;;
41661;SDS011;27351;45.992;12.666;2022-08-21T10:26:11;3.13;;;1.15;;
41661;SDS011;27351;45.992;12.666;2022-08-21T10:34:05;2.47;;;0.80;;
41661;SDS011;27351;45.992;12.666;2022-08-21T10:36:45;2.40;;;1.00;;
41661;SDS011;27351;45.992;12.666;2022-08-21T10:39:20;2.33;;;0.80;;
41661;SDS011;27351;45.992;12.666;2022-08-21T10:47:15;2.28;;;1.00;;
41661;SDS011;27351;45.992;12.666;2022-08-21T10:54:50;3.50;;;1.00;;
41661;SDS011;27351;45.992;12.666;2022-08-21T10:57:29;2.28;;;0.95;;
41661;SDS011;27351;45.992;12.666;2022-08-21T11:00:08;3.92;;;1.30;;
41661;SDS011;27351;45.992;12.666;2022-08-21T11:02:38;1.45;;;0.90;;
41661;SDS011;27351;45.992;12.666;2022-08-21T11:05:29;2.67;;;0.98;;
41661;SDS011;27351;45.992;12.666;2022-08-21T11:07:55;2.33;;;1.02;;
41661;SDS011;27351;45.992;12.666;2022-08-21T11:10:37;1.63;;;0.95;;
41661;SDS011;27351;45.992;12.666;2022-08-21T11:15:56;2.10;;;1.00;;
41661;SDS011;27351;45.992;12.666;2022-08-21T11:18:30;1.88;;;0.95;;
41661;SDS011;27351;45.992;12.666;2022-08-21T11:26:21;1.55;;;0.98;;
41661;SDS011;27351;45.992;12.666;2022-08-21T11:28:52;1.90;;;1.05;;
41661;SDS011;27351;45.992;12.666;2022-08-21T11:39:25;1.20;;;0.70;;
41661;SDS011;27351;45.992;12.666;2022-08-21T11:41:54;2.42;;;1.00;;
41661;SDS011;27351;45.992;12.666;2022-08-21T11:44:32;3.20;;;0.70;;
41661;SDS011;27351;45.992;12.666;2022-08-21T11:50:15;3.08;;;0.70;;
41661;SDS011;27351;45.992;12.666;2022-08-21T11:52:52;2.53;;;0.90;;
41661;SDS011;27351;45.992;12.666;2022-08-21T11:55:36;2.28;;;0.90;;
41661;SDS011;27351;45.992;12.666;2022-08-21T12:00:48;2.03;;;0.77;;
41661;SDS011;27351;45.992;12.666;2022-08-21T12:06:13;1.73;;;0.60;;
41661;SDS011;27351;45.992;12.666;2022-08-21T12:08:40;1.40;;;0.70;;
41661;SDS011;27351;45.992;12.666;2022-08-21T12:13:36;0.80;;;0.60;;
41661;SDS011;27351;45.992;12.666;2022-08-21T12:16:06;0.90;;;0.65;;
41661;SDS011;27351;45.992;12.666;2022-08-21T12:18:33;1.23;;;0.80;;
41661;SDS011;27351;45.992;12.666;2022-08-21T12:21:03;2.03;;;0.67;;
41661;SDS011;27351;45.992;12.666;2022-08-21T12:23:47;0.85;;;0.63;;
41661;SDS011;27351;45.992;12.666;2022-08-21T12:28:38;1.83;;;0.77;;
41661;SDS011;27351;45.992;12.666;2022-08-21T12:31:05;1.77;;;0.63;;
41661;SDS011;27351;45.992;12.666;2022-08-21T12:33:42;1.88;;;1.10;;
41661;SDS011;27351;45.992;12.666;2022-08-21T12:36:14;1.33;;;0.60;;
41661;SDS011;27351;45.992;12.666;2022-08-21T12:41:11;1.40;;;0.63;;
41661;SDS011;27351;45.992;12.666;2022-08-21T12:43:38;2.03;;;0.60;;
41661;SDS011;27351;45.992;12.666;2022-08-21T12:46:05;3.40;;;0.80;;
41661;SDS011;27351;45.992;12.666;2022-08-21T12:48:33;2.25;;;0.70;;
41661;SDS011;27351;45.992;12.666;2022-08-21T12:56:04;1.60;;;0.80;;
41661;SDS011;27351;45.992;12.666;2022-08-21T12:58:34;2.08;;;0.80;;
41661;SDS011;27351;45.992;12.666;2022-08-21T13:01:34;2.20;;;0.70;;
41661;SDS011;27351;45.992;12.666;2022-08-21T13:04:02;0.98;;;0.60;;
41661;SDS011;27351;45.992;12.666;2022-08-21T13:06:29;1.33;;;0.65;;
41661;SDS011;27351;45.992;12.666;2022-08-21T13:08:57;1.95;;;0.63;;
41661;SDS011;27351;45.992;12.666;2022-08-21T13:11:24;1.70;;;0.53;;
41661;SDS011;27351;45.992;12.666;2022-08-21T13:13:51;1.15;;;0.80;;
41661;SDS011;27351;45.992;12.666;2022-08-21T13:16:26;1.15;;;0.70;;
41661;SDS011;27351;45.992;12.666;2022-08-21T13:19:00;0.90;;;0.60;;
41661;SDS011;27351;45.992;12.666;2022-08-21T13:21:27;0.80;;;0.60;;
41661;SDS011;27351;45.992;12.666;2022-08-21T13:23:53;1.63;;;0.70;;
41661;SDS011;27351;45.992;12.666;2022-08-21T13:26:20;2.05;;;0.63;;
41661;SDS011;27351;45.992;12.666;2022-08-21T13:28:46;1.00;;;0.60;;
41661;SDS011;27351;45.992;12.666;2022-08-21T13:31:13;1.45;;;0.70;;
41661;SDS011;27351;45.992;12.666;2022-08-21T13:33:42;1.88;;;0.90;;
41661;SDS011;27351;45.992;12.666;2022-08-21T13:38:34;0.93;;;0.50;;
41661;SDS011;27351;45.992;12.666;2022-08-21T13:43:36;0.87;;;0.50;;
41661;SDS011;27351;45.992;12.666;2022-08-21T13:46:06;1.33;;;0.70;;
41661;SDS011;27351;45.992;12.666;2022-08-21T13:48:33;3.80;;;0.70;;
41661;SDS011;27351;45.992;12.666;2022-08-21T13:50:59;1.15;;;0.57;;
41661;SDS011;27351;45.992;12.666;2022-08-21T13:56:07;1.50;;;0.50;;
41661;SDS011;27351;45.992;12.666;2022-08-21T13:58:41;1.45;;;0.70;;
41661;SDS011;27351;45.992;12.666;2022-08-21T14:01:15;1.38;;;0.52;;
41661;SDS011;27351;45.992;12.666;2022-08-21T14:03:42;1.00;;;0.63;;
41661;SDS011;27351;45.992;12.666;2022-08-21T14:06:28;1.90;;;0.77;;
41661;SDS011;27351;45.992;12.666;2022-08-21T14:08:58;1.07;;;0.60;;
41661;SDS011;27351;45.992;12.666;2022-08-21T14:11:25;2.50;;;0.80;;
41661;SDS011;27351;45.992;12.666;2022-08-21T14:16:24;1.30;;;0.43;;
41661;SDS011;27351;45.992;12.666;2022-08-21T14:21:30;2.37;;;0.67;;
41661;SDS011;27351;45.992;12.666;2022-08-21T14:24:01;2.00;;;0.70;;
41661;SDS011;27351;45.992;12.666;2022-08-21T14:26:27;1.52;;;0.55;;
41661;SDS011;27351;45.992;12.666;2022-08-21T14:28:52;1.00;;;0.40;;
41661;SDS011;27351;45.992;12.666;2022-08-21T14:31:27;1.57;;;0.67;;
41661;SDS011;27351;45.992;12.666;2022-08-21T14:33:54;1.10;;;0.60;;
41661;SDS011;27351;45.992;12.666;2022-08-21T14:36:20;1.10;;;0.60;;
41661;SDS011;27351;45.992;12.666;2022-08-21T14:38:46;1.25;;;0.60;;
41661;SDS011;27351;45.992;12.666;2022-08-21T14:41:22;1.10;;;0.70;;
41661;SDS011;27351;45.992;12.666;2022-08-21T14:43:48;2.10;;;0.90;;
41661;SDS011;27351;45.992;12.666;2022-08-21T14:46:16;1.80;;;0.80;;
41661;SDS011;27351;45.992;12.666;2022-08-21T14:48:44;2.08;;;0.80;;
41661;SDS011;27351;45.992;12.666;2022-08-21T14:51:12;1.45;;;0.77;;
41661;SDS011;27351;45.992;12.666;2022-08-21T14:53:38;1.63;;;0.80;;
41661;SDS011;27351;45.992;12.666;2022-08-21T14:56:04;1.52;;;0.80;;
41661;SDS011;27351;45.992;12.666;2022-08-21T14:58:30;1.97;;;0.80;;
41661;SDS011;27351;45.992;12.666;2022-08-21T15:00:56;3.27;;;0.93;;
41661;SDS011;27351;45.992;12.666;2022-08-21T15:03:26;2.83;;;0.98;;
41661;SDS011;27351;45.992;12.666;2022-08-21T15:05:52;2.58;;;0.82;;
41661;SDS011;27351;45.992;12.666;2022-08-21T15:08:17;5.30;;;1.40;;
41661;SDS011;27351;45.992;12.666;2022-08-21T15:10:43;1.90;;;1.00;;
41661;SDS011;27351;45.992;12.666;2022-08-21T15:13:09;1.60;;;0.83;;
41661;SDS011;27351;45.992;12.666;2022-08-21T15:15:38;3.07;;;0.93;;
41661;SDS011;27351;45.992;12.666;2022-08-21T15:18:04;2.25;;;0.90;;
41661;SDS011;27351;45.992;12.666;2022-08-21T15:20:29;3.30;;;0.90;;
41661;SDS011;27351;45.992;12.666;2022-08-21T15:22:55;1.90;;;1.00;;
41661;SDS011;27351;45.992;12.666;2022-08-21T15:25:21;2.27;;;1.10;;
41661;SDS011;27351;45.992;12.666;2022-08-21T15:27:46;1.40;;;0.70;;
41661;SDS011;27351;45.992;12.666;2022-08-21T15:30:12;2.30;;;1.05;;
41661;SDS011;27351;45.992;12.666;2022-08-21T15:32:38;1.87;;;1.03;;
41661;SDS011;27351;45.992;12.666;2022-08-21T15:35:04;3.00;;;0.77;;
41661;SDS011;27351;45.992;12.666;2022-08-21T15:37:30;2.63;;;0.90;;
41661;SDS011;27351;45.992;12.666;2022-08-21T15:39:56;2.28;;;0.90;;
41661;SDS011;27351;45.992;12.666;2022-08-21T15:42:22;2.42;;;0.80;;
41661;SDS011;27351;45.992;12.666;2022-08-21T15:44:47;1.73;;;0.77;;
41661;SDS011;27351;45.992;12.666;2022-08-21T15:47:17;1.43;;;0.53;;
41661;SDS011;27351;45.992;12.666;2022-08-21T15:49:43;1.38;;;0.70;;
41661;SDS011;27351;45.992;12.666;2022-08-21T15:52:14;1.15;;;0.68;;
41661;SDS011;27351;45.992;12.666;2022-08-21T15:54:41;1.70;;;0.82;;
41661;SDS011;27351;45.992;12.666;2022-08-21T15:57:06;1.17;;;0.82;;
41661;SDS011;27351;45.992;12.666;2022-08-21T15:59:37;2.75;;;1.20;;
41661;SDS011;27351;45.992;12.666;2022-08-21T16:02:05;3.15;;;0.90;;
41661;SDS011;27351;45.992;12.666;2022-08-21T16:04:31;3.30;;;1.20;;
41661;SDS011;27351;45.992;12.666;2022-08-21T16:06:57;2.45;;;0.90;;